sensor_id;sensor_type;location;lat;lon;timestamp;P1;durP1;ratioP1;P2;durP2;ratioP2
41263;SDS011;26998;48.714;9.414;2023-09-12T00:01:35;6.90;;;4.57;;
41263;SDS011;26998;48.714;9.414;2023-09-12T00:04:01;7.80;;;4.88;;
41263;SDS011;26998;48.714;9.414;2023-09-12T00:06:28;5.82;;;4.25;;
41263;SDS011;26998;48.714;9.414;2023-09-12T00:08:55;6.65;;;4.38;;
41263;SDS011;26998;48.714;9.414;2023-09-12T00:11:22;7.55;;;4.22;;
41263;SDS011;26998;48.714;9.414;2023-09-12T00:13:51;10.07;;;5.78;;
41263;SDS011;26998;48.714;9.414;2023-09-12T00:16:18;7.20;;;5.22;;
41263;SDS011;26998;48.714;9.414;2023-09-12T00:18:45;5.90;;;4.32;;
41263;SDS011;26998;48.714;9.414;2023-09-12T00:21:11;6.63;;;4.65;;
41263;SDS011;26998;48.714;9.414;2023-09-12T00:23:38;9.68;;;4.93;;
41263;SDS011;26998;48.714;9.414;2023-09-12T00:26:05;6.35;;;4.03;;
41263;SDS011;26998;48.714;9.414;2023-09-12T00:28:34;4.80;;;4.20;;
41263;SDS011;26998;48.714;9.414;2023-09-12T00:31:01;5.03;;;3.45;;
41263;SDS011;26998;48.714;9.414;2023-09-12T00:33:27;6.88;;;4.30;;
41263;SDS011;26998;48.714;9.414;2023-09-12T00:35:54;7.80;;;4.18;;
41263;SDS011;26998;48.714;9.414;2023-09-12T00:38:29;7.45;;;4.57;;
41263;SDS011;26998;48.714;9.414;2023-09-12T00:40:56;6.22;;;4.57;;
41263;SDS011;26998;48.714;9.414;2023-09-12T00:43:22;6.25;;;4.22;;
41263;SDS011;26998;48.714;9.414;2023-09-12T00:45:54;8.80;;;5.32;;
41263;SDS011;26998;48.714;9.414;2023-09-12T00:48:29;4.90;;;3.50;;
41263;SDS011;26998;48.714;9.414;2023-09-12T00:50:59;9.02;;;4.63;;
41263;SDS011;26998;48.714;9.414;2023-09-12T00:53:27;5.82;;;4.47;;
41263;SDS011;26998;48.714;9.414;2023-09-12T00:55:56;5.00;;;3.63;;
41263;SDS011;26998;48.714;9.414;2023-09-12T01:00:53;6.60;;;4.53;;
41263;SDS011;26998;48.714;9.414;2023-09-12T01:03:20;5.88;;;4.40;;
41263;SDS011;26998;48.714;9.414;2023-09-12T01:05:47;4.35;;;3.65;;
41263;SDS011;26998;48.714;9.414;2023-09-12T01:08:13;4.32;;;3.92;;
41263;SDS011;26998;48.714;9.414;2023-09-12T01:10:40;6.25;;;4.60;;
41263;SDS011;26998;48.714;9.414;2023-09-12T01:13:07;8.40;;;5.50;;
41263;SDS011;26998;48.714;9.414;2023-09-12T01:15:34;5.38;;;4.35;;
41263;SDS011;26998;48.714;9.414;2023-09-12T01:18:01;6.18;;;4.38;;
41263;SDS011;26998;48.714;9.414;2023-09-12T01:20:28;5.40;;;4.18;;
41263;SDS011;26998;48.714;9.414;2023-09-12T01:26:04;4.75;;;3.85;;
41263;SDS011;26998;48.714;9.414;2023-09-12T01:28:36;4.68;;;4.07;;
41263;SDS011;26998;48.714;9.414;2023-09-12T01:31:06;5.57;;;4.25;;
41263;SDS011;26998;48.714;9.414;2023-09-12T01:33:33;5.05;;;4.00;;
41263;SDS011;26998;48.714;9.414;2023-09-12T01:36:00;6.13;;;4.35;;
41263;SDS011;26998;48.714;9.414;2023-09-12T01:38:26;6.22;;;4.32;;
41263;SDS011;26998;48.714;9.414;2023-09-12T01:40:53;6.25;;;4.88;;
41263;SDS011;26998;48.714;9.414;2023-09-12T01:43:22;5.65;;;4.72;;
41263;SDS011;26998;48.714;9.414;2023-09-12T01:45:52;5.53;;;4.72;;
41263;SDS011;26998;48.714;9.414;2023-09-12T01:48:21;5.22;;;4.07;;
41263;SDS011;26998;48.714;9.414;2023-09-12T01:50:51;4.88;;;4.05;;
41263;SDS011;26998;48.714;9.414;2023-09-12T01:53:18;4.90;;;3.75;;
41263;SDS011;26998;48.714;9.414;2023-09-12T01:55:47;7.53;;;4.47;;
41263;SDS011;26998;48.714;9.414;2023-09-12T01:58:14;4.30;;;3.90;;
41263;SDS011;26998;48.714;9.414;2023-09-12T02:00:41;4.57;;;4.03;;
41263;SDS011;26998;48.714;9.414;2023-09-12T02:03:08;5.45;;;4.30;;
41263;SDS011;26998;48.714;9.414;2023-09-12T02:05:34;4.95;;;3.60;;
41263;SDS011;26998;48.714;9.414;2023-09-12T02:08:02;7.63;;;4.38;;
41263;SDS011;26998;48.714;9.414;2023-09-12T02:10:28;5.82;;;3.58;;
41263;SDS011;26998;48.714;9.414;2023-09-12T02:12:55;4.72;;;3.30;;
41263;SDS011;26998;48.714;9.414;2023-09-12T02:15:21;6.90;;;4.57;;
41263;SDS011;26998;48.714;9.414;2023-09-12T02:17:49;6.13;;;4.03;;
41263;SDS011;26998;48.714;9.414;2023-09-12T02:20:15;6.38;;;4.35;;
41263;SDS011;26998;48.714;9.414;2023-09-12T02:22:42;7.93;;;4.45;;
41263;SDS011;26998;48.714;9.414;2023-09-12T02:25:11;6.22;;;3.92;;
41263;SDS011;26998;48.714;9.414;2023-09-12T02:27:38;6.25;;;4.45;;
41263;SDS011;26998;48.714;9.414;2023-09-12T02:30:04;6.25;;;4.32;;
41263;SDS011;26998;48.714;9.414;2023-09-12T02:32:31;8.38;;;4.57;;
41263;SDS011;26998;48.714;9.414;2023-09-12T02:34:58;6.95;;;4.32;;
41263;SDS011;26998;48.714;9.414;2023-09-12T02:37:24;7.00;;;4.43;;
41263;SDS011;26998;48.714;9.414;2023-09-12T02:39:51;5.55;;;4.68;;
41263;SDS011;26998;48.714;9.414;2023-09-12T02:42:17;6.78;;;4.32;;
41263;SDS011;26998;48.714;9.414;2023-09-12T02:44:44;8.05;;;5.10;;
41263;SDS011;26998;48.714;9.414;2023-09-12T02:47:11;5.05;;;4.53;;
41263;SDS011;26998;48.714;9.414;2023-09-12T02:49:37;7.65;;;5.32;;
41263;SDS011;26998;48.714;9.414;2023-09-12T02:52:04;6.68;;;5.00;;
41263;SDS011;26998;48.714;9.414;2023-09-12T02:54:31;6.13;;;4.18;;
41263;SDS011;26998;48.714;9.414;2023-09-12T02:56:57;6.07;;;4.00;;
41263;SDS011;26998;48.714;9.414;2023-09-12T02:59:24;7.35;;;4.60;;
41263;SDS011;26998;48.714;9.414;2023-09-12T03:01:50;5.53;;;4.50;;
41263;SDS011;26998;48.714;9.414;2023-09-12T03:04:17;6.22;;;5.10;;
41263;SDS011;26998;48.714;9.414;2023-09-12T03:06:43;6.82;;;4.70;;
41263;SDS011;26998;48.714;9.414;2023-09-12T03:09:10;6.53;;;4.65;;
41263;SDS011;26998;48.714;9.414;2023-09-12T03:11:36;8.30;;;5.10;;
41263;SDS011;26998;48.714;9.414;2023-09-12T03:14:03;5.30;;;4.00;;
41263;SDS011;26998;48.714;9.414;2023-09-12T03:16:29;7.22;;;4.95;;
41263;SDS011;26998;48.714;9.414;2023-09-12T03:18:56;5.10;;;4.57;;
41263;SDS011;26998;48.714;9.414;2023-09-12T03:21:22;6.55;;;4.38;;
41263;SDS011;26998;48.714;9.414;2023-09-12T03:23:49;7.72;;;4.78;;
41263;SDS011;26998;48.714;9.414;2023-09-12T03:26:16;5.70;;;3.95;;
41263;SDS011;26998;48.714;9.414;2023-09-12T03:28:43;8.70;;;5.15;;
41263;SDS011;26998;48.714;9.414;2023-09-12T03:31:11;6.03;;;4.43;;
41263;SDS011;26998;48.714;9.414;2023-09-12T03:33:40;7.18;;;4.25;;
41263;SDS011;26998;48.714;9.414;2023-09-12T03:36:08;5.68;;;4.47;;
41263;SDS011;26998;48.714;9.414;2023-09-12T03:38:35;5.32;;;4.55;;
41263;SDS011;26998;48.714;9.414;2023-09-12T03:41:02;6.03;;;4.43;;
41263;SDS011;26998;48.714;9.414;2023-09-12T03:43:29;8.73;;;6.45;;
41263;SDS011;26998;48.714;9.414;2023-09-12T03:45:56;5.43;;;4.22;;
41263;SDS011;26998;48.714;9.414;2023-09-12T03:48:22;5.50;;;4.55;;
41263;SDS011;26998;48.714;9.414;2023-09-12T03:50:49;5.47;;;4.82;;
41263;SDS011;26998;48.714;9.414;2023-09-12T03:53:16;6.40;;;4.82;;
41263;SDS011;26998;48.714;9.414;2023-09-12T03:55:42;8.32;;;4.68;;
41263;SDS011;26998;48.714;9.414;2023-09-12T03:58:11;6.47;;;4.25;;
41263;SDS011;26998;48.714;9.414;2023-09-12T04:00:58;5.30;;;4.57;;
41263;SDS011;26998;48.714;9.414;2023-09-12T04:03:25;6.32;;;4.82;;
41263;SDS011;26998;48.714;9.414;2023-09-12T04:05:52;9.77;;;5.18;;
41263;SDS011;26998;48.714;9.414;2023-09-12T04:08:18;6.93;;;4.75;;
41263;SDS011;26998;48.714;9.414;2023-09-12T04:10:44;7.35;;;5.45;;
41263;SDS011;26998;48.714;9.414;2023-09-12T04:13:11;5.45;;;4.50;;
41263;SDS011;26998;48.714;9.414;2023-09-12T04:15:38;6.45;;;4.45;;
41263;SDS011;26998;48.714;9.414;2023-09-12T04:18:04;5.65;;;4.55;;
41263;SDS011;26998;48.714;9.414;2023-09-12T04:20:31;4.72;;;3.85;;
41263;SDS011;26998;48.714;9.414;2023-09-12T04:23:00;7.88;;;4.22;;
41263;SDS011;26998;48.714;9.414;2023-09-12T04:25:27;7.03;;;4.70;;
41263;SDS011;26998;48.714;9.414;2023-09-12T04:27:54;5.55;;;4.22;;
41263;SDS011;26998;48.714;9.414;2023-09-12T04:30:20;4.70;;;4.22;;
41263;SDS011;26998;48.714;9.414;2023-09-12T04:32:49;7.97;;;4.78;;
41263;SDS011;26998;48.714;9.414;2023-09-12T04:35:16;6.03;;;4.50;;
41263;SDS011;26998;48.714;9.414;2023-09-12T04:37:42;5.25;;;4.40;;
41263;SDS011;26998;48.714;9.414;2023-09-12T04:40:09;7.60;;;5.28;;
41263;SDS011;26998;48.714;9.414;2023-09-12T04:42:37;5.95;;;4.28;;
41263;SDS011;26998;48.714;9.414;2023-09-12T04:45:03;6.55;;;4.70;;
41263;SDS011;26998;48.714;9.414;2023-09-12T04:47:30;5.25;;;4.28;;
41263;SDS011;26998;48.714;9.414;2023-09-12T04:49:56;7.35;;;4.88;;
41263;SDS011;26998;48.714;9.414;2023-09-12T04:52:23;8.15;;;5.05;;
41263;SDS011;26998;48.714;9.414;2023-09-12T04:54:50;5.72;;;4.65;;
41263;SDS011;26998;48.714;9.414;2023-09-12T04:57:17;6.03;;;4.72;;
41263;SDS011;26998;48.714;9.414;2023-09-12T04:59:43;6.82;;;4.35;;
41263;SDS011;26998;48.714;9.414;2023-09-12T05:02:10;5.22;;;4.63;;
41263;SDS011;26998;48.714;9.414;2023-09-12T05:04:36;5.93;;;3.72;;
41263;SDS011;26998;48.714;9.414;2023-09-12T05:07:03;8.23;;;4.68;;
41263;SDS011;26998;48.714;9.414;2023-09-12T05:09:30;7.50;;;5.15;;
41263;SDS011;26998;48.714;9.414;2023-09-12T05:11:58;6.50;;;4.97;;
41263;SDS011;26998;48.714;9.414;2023-09-12T05:14:24;8.23;;;4.93;;
41263;SDS011;26998;48.714;9.414;2023-09-12T05:16:51;6.97;;;5.40;;
41263;SDS011;26998;48.714;9.414;2023-09-12T05:19:17;6.22;;;5.00;;
41263;SDS011;26998;48.714;9.414;2023-09-12T05:21:45;5.72;;;4.43;;
41263;SDS011;26998;48.714;9.414;2023-09-12T05:24:12;6.63;;;4.53;;
41263;SDS011;26998;48.714;9.414;2023-09-12T05:26:38;4.97;;;4.03;;
41263;SDS011;26998;48.714;9.414;2023-09-12T05:29:09;5.75;;;4.30;;
41263;SDS011;26998;48.714;9.414;2023-09-12T05:31:35;6.35;;;4.45;;
41263;SDS011;26998;48.714;9.414;2023-09-12T05:34:02;6.50;;;4.07;;
41263;SDS011;26998;48.714;9.414;2023-09-12T05:36:29;7.00;;;4.68;;
41263;SDS011;26998;48.714;9.414;2023-09-12T05:38:56;6.97;;;4.32;;
41263;SDS011;26998;48.714;9.414;2023-09-12T05:41:25;7.95;;;5.10;;
41263;SDS011;26998;48.714;9.414;2023-09-12T05:43:52;6.40;;;5.25;;
41263;SDS011;26998;48.714;9.414;2023-09-12T05:46:22;5.70;;;4.22;;
41263;SDS011;26998;48.714;9.414;2023-09-12T05:48:49;5.43;;;4.28;;
41263;SDS011;26998;48.714;9.414;2023-09-12T05:51:15;6.47;;;5.05;;
41263;SDS011;26998;48.714;9.414;2023-09-12T05:53:42;5.20;;;3.90;;
41263;SDS011;26998;48.714;9.414;2023-09-12T05:56:09;6.22;;;4.28;;
41263;SDS011;26998;48.714;9.414;2023-09-12T05:58:36;7.28;;;5.18;;
41263;SDS011;26998;48.714;9.414;2023-09-12T06:01:06;6.80;;;4.90;;
41263;SDS011;26998;48.714;9.414;2023-09-12T06:03:34;4.65;;;4.00;;
41263;SDS011;26998;48.714;9.414;2023-09-12T06:06:03;4.50;;;3.63;;
41263;SDS011;26998;48.714;9.414;2023-09-12T06:08:30;6.53;;;4.93;;
41263;SDS011;26998;48.714;9.414;2023-09-12T06:10:57;6.30;;;4.10;;
41263;SDS011;26998;48.714;9.414;2023-09-12T06:13:25;5.93;;;4.68;;
41263;SDS011;26998;48.714;9.414;2023-09-12T06:15:54;5.97;;;4.40;;
41263;SDS011;26998;48.714;9.414;2023-09-12T06:18:25;10.50;;;4.78;;
41263;SDS011;26998;48.714;9.414;2023-09-12T06:20:53;7.40;;;5.47;;
41263;SDS011;26998;48.714;9.414;2023-09-12T06:23:19;5.65;;;4.85;;
41263;SDS011;26998;48.714;9.414;2023-09-12T06:25:46;5.85;;;4.35;;
41263;SDS011;26998;48.714;9.414;2023-09-12T06:28:12;6.85;;;4.68;;
41263;SDS011;26998;48.714;9.414;2023-09-12T06:30:52;5.83;;;4.87;;
41263;SDS011;26998;48.714;9.414;2023-09-12T06:33:19;5.20;;;4.22;;
41263;SDS011;26998;48.714;9.414;2023-09-12T06:35:49;5.70;;;3.78;;
41263;SDS011;26998;48.714;9.414;2023-09-12T06:38:16;7.40;;;4.13;;
41263;SDS011;26998;48.714;9.414;2023-09-12T06:40:43;5.65;;;4.25;;
41263;SDS011;26998;48.714;9.414;2023-09-12T06:43:10;5.38;;;4.25;;
41263;SDS011;26998;48.714;9.414;2023-09-12T06:45:37;5.45;;;4.22;;
41263;SDS011;26998;48.714;9.414;2023-09-12T06:48:03;4.82;;;3.85;;
41263;SDS011;26998;48.714;9.414;2023-09-12T06:50:30;6.60;;;4.00;;
41263;SDS011;26998;48.714;9.414;2023-09-12T06:53:00;7.93;;;4.72;;
41263;SDS011;26998;48.714;9.414;2023-09-12T06:55:27;5.30;;;3.83;;
41263;SDS011;26998;48.714;9.414;2023-09-12T06:57:54;5.43;;;4.38;;
41263;SDS011;26998;48.714;9.414;2023-09-12T07:00:22;5.82;;;4.38;;
41263;SDS011;26998;48.714;9.414;2023-09-12T07:02:50;5.40;;;3.97;;
41263;SDS011;26998;48.714;9.414;2023-09-12T07:05:17;6.38;;;4.45;;
41263;SDS011;26998;48.714;9.414;2023-09-12T07:07:47;7.70;;;4.43;;
41263;SDS011;26998;48.714;9.414;2023-09-12T07:10:13;6.50;;;4.22;;
41263;SDS011;26998;48.714;9.414;2023-09-12T07:12:50;4.55;;;3.92;;
41263;SDS011;26998;48.714;9.414;2023-09-12T07:15:19;5.25;;;4.38;;
41263;SDS011;26998;48.714;9.414;2023-09-12T07:17:48;7.65;;;4.32;;
41263;SDS011;26998;48.714;9.414;2023-09-12T07:20:15;7.68;;;3.55;;
41263;SDS011;26998;48.714;9.414;2023-09-12T07:22:42;6.40;;;4.32;;
41263;SDS011;26998;48.714;9.414;2023-09-12T07:25:09;8.38;;;5.00;;
41263;SDS011;26998;48.714;9.414;2023-09-12T07:27:36;5.53;;;3.85;;
41263;SDS011;26998;48.714;9.414;2023-09-12T07:30:04;6.68;;;4.25;;
41263;SDS011;26998;48.714;9.414;2023-09-12T07:32:32;5.63;;;3.67;;
41263;SDS011;26998;48.714;9.414;2023-09-12T07:35:01;5.22;;;4.05;;
41263;SDS011;26998;48.714;9.414;2023-09-12T07:37:29;6.78;;;5.22;;
41263;SDS011;26998;48.714;9.414;2023-09-12T07:39:56;6.30;;;4.68;;
41263;SDS011;26998;48.714;9.414;2023-09-12T07:42:23;5.70;;;3.72;;
41263;SDS011;26998;48.714;9.414;2023-09-12T07:44:50;6.72;;;5.22;;
41263;SDS011;26998;48.714;9.414;2023-09-12T07:47:17;6.50;;;4.32;;
41263;SDS011;26998;48.714;9.414;2023-09-12T07:49:52;7.10;;;4.32;;
41263;SDS011;26998;48.714;9.414;2023-09-12T07:52:19;5.07;;;3.40;;
41263;SDS011;26998;48.714;9.414;2023-09-12T07:54:46;6.22;;;4.45;;
41263;SDS011;26998;48.714;9.414;2023-09-12T07:57:13;5.95;;;4.13;;
41263;SDS011;26998;48.714;9.414;2023-09-12T07:59:39;4.82;;;4.10;;
41263;SDS011;26998;48.714;9.414;2023-09-12T08:02:07;7.28;;;4.00;;
41263;SDS011;26998;48.714;9.414;2023-09-12T08:04:36;8.57;;;5.75;;
41263;SDS011;26998;48.714;9.414;2023-09-12T08:07:03;6.63;;;4.18;;
41263;SDS011;26998;48.714;9.414;2023-09-12T08:12:18;9.82;;;5.20;;
41263;SDS011;26998;48.714;9.414;2023-09-12T08:14:46;7.75;;;4.75;;
41263;SDS011;26998;48.714;9.414;2023-09-12T08:17:13;5.78;;;5.05;;
41263;SDS011;26998;48.714;9.414;2023-09-12T08:19:40;5.30;;;4.25;;
41263;SDS011;26998;48.714;9.414;2023-09-12T08:22:09;7.20;;;4.55;;
41263;SDS011;26998;48.714;9.414;2023-09-12T08:24:36;4.88;;;4.35;;
41263;SDS011;26998;48.714;9.414;2023-09-12T08:27:04;5.47;;;4.60;;
41263;SDS011;26998;48.714;9.414;2023-09-12T08:29:33;5.03;;;4.00;;
41263;SDS011;26998;48.714;9.414;2023-09-12T08:32:02;6.90;;;4.50;;
41263;SDS011;26998;48.714;9.414;2023-09-12T08:34:29;5.35;;;3.70;;
41263;SDS011;26998;48.714;9.414;2023-09-12T08:36:55;6.57;;;4.78;;
41263;SDS011;26998;48.714;9.414;2023-09-12T08:39:26;6.72;;;4.03;;
41263;SDS011;26998;48.714;9.414;2023-09-12T08:41:54;7.93;;;4.30;;
41263;SDS011;26998;48.714;9.414;2023-09-12T08:44:21;8.75;;;4.93;;
41263;SDS011;26998;48.714;9.414;2023-09-12T08:49:18;5.78;;;4.13;;
41263;SDS011;26998;48.714;9.414;2023-09-12T08:51:45;4.93;;;4.00;;
41263;SDS011;26998;48.714;9.414;2023-09-12T08:54:11;7.32;;;4.70;;
41263;SDS011;26998;48.714;9.414;2023-09-12T08:56:39;4.55;;;3.88;;
41263;SDS011;26998;48.714;9.414;2023-09-12T08:59:07;6.28;;;4.20;;
41263;SDS011;26998;48.714;9.414;2023-09-12T09:01:36;6.85;;;3.97;;
41263;SDS011;26998;48.714;9.414;2023-09-12T09:04:04;5.60;;;3.83;;
41263;SDS011;26998;48.714;9.414;2023-09-12T09:06:34;4.85;;;3.97;;
41263;SDS011;26998;48.714;9.414;2023-09-12T09:09:03;6.88;;;5.07;;
41263;SDS011;26998;48.714;9.414;2023-09-12T09:11:31;4.22;;;3.83;;
41263;SDS011;26998;48.714;9.414;2023-09-12T09:13:58;5.45;;;4.30;;
41263;SDS011;26998;48.714;9.414;2023-09-12T09:16:24;4.90;;;4.10;;
41263;SDS011;26998;48.714;9.414;2023-09-12T09:18:55;4.47;;;4.03;;
41263;SDS011;26998;48.714;9.414;2023-09-12T09:21:24;4.95;;;4.40;;
41263;SDS011;26998;48.714;9.414;2023-09-12T09:23:52;7.95;;;4.72;;
41263;SDS011;26998;48.714;9.414;2023-09-12T09:26:21;4.73;;;4.23;;
41263;SDS011;26998;48.714;9.414;2023-09-12T09:29:05;4.65;;;3.78;;
41263;SDS011;26998;48.714;9.414;2023-09-12T09:31:34;4.55;;;4.13;;
41263;SDS011;26998;48.714;9.414;2023-09-12T09:34:01;5.38;;;3.92;;
41263;SDS011;26998;48.714;9.414;2023-09-12T09:36:29;5.72;;;4.32;;
41263;SDS011;26998;48.714;9.414;2023-09-12T09:38:57;6.25;;;3.55;;
41263;SDS011;26998;48.714;9.414;2023-09-12T09:41:24;6.40;;;4.30;;
41263;SDS011;26998;48.714;9.414;2023-09-12T09:43:51;5.22;;;4.68;;
41263;SDS011;26998;48.714;9.414;2023-09-12T09:46:20;7.28;;;4.15;;
41263;SDS011;26998;48.714;9.414;2023-09-12T09:48:50;4.75;;;3.85;;
41263;SDS011;26998;48.714;9.414;2023-09-12T09:51:23;4.50;;;3.97;;
41263;SDS011;26998;48.714;9.414;2023-09-12T09:53:52;4.30;;;3.90;;
41263;SDS011;26998;48.714;9.414;2023-09-12T09:56:19;5.28;;;4.22;;
41263;SDS011;26998;48.714;9.414;2023-09-12T09:58:55;7.75;;;5.13;;
41263;SDS011;26998;48.714;9.414;2023-09-12T10:01:23;5.05;;;4.05;;
41263;SDS011;26998;48.714;9.414;2023-09-12T10:03:59;4.18;;;3.78;;
41263;SDS011;26998;48.714;9.414;2023-09-12T10:06:28;4.57;;;4.07;;
41263;SDS011;26998;48.714;9.414;2023-09-12T10:08:58;7.15;;;4.45;;
41263;SDS011;26998;48.714;9.414;2023-09-12T10:11:27;5.82;;;4.28;;
41263;SDS011;26998;48.714;9.414;2023-09-12T10:13:57;5.43;;;4.40;;
41263;SDS011;26998;48.714;9.414;2023-09-12T10:21:32;7.32;;;4.20;;
41263;SDS011;26998;48.714;9.414;2023-09-12T10:24:00;11.55;;;4.55;;
41263;SDS011;26998;48.714;9.414;2023-09-12T10:26:32;5.03;;;4.40;;
41263;SDS011;26998;48.714;9.414;2023-09-12T10:29:01;5.05;;;3.95;;
41263;SDS011;26998;48.714;9.414;2023-09-12T10:31:30;4.88;;;4.20;;
41263;SDS011;26998;48.714;9.414;2023-09-12T10:33:58;4.78;;;3.97;;
41263;SDS011;26998;48.714;9.414;2023-09-12T10:36:28;5.47;;;4.40;;
41263;SDS011;26998;48.714;9.414;2023-09-12T10:38:56;6.00;;;4.20;;
41263;SDS011;26998;48.714;9.414;2023-09-12T10:41:32;6.40;;;4.65;;
41263;SDS011;26998;48.714;9.414;2023-09-12T10:43:59;4.32;;;3.92;;
41263;SDS011;26998;48.714;9.414;2023-09-12T10:46:28;5.82;;;4.20;;
41263;SDS011;26998;48.714;9.414;2023-09-12T10:48:55;5.55;;;4.05;;
41263;SDS011;26998;48.714;9.414;2023-09-12T10:51:21;4.82;;;3.72;;
41263;SDS011;26998;48.714;9.414;2023-09-12T10:53:50;6.07;;;4.32;;
41263;SDS011;26998;48.714;9.414;2023-09-12T10:56:21;4.85;;;3.85;;
41263;SDS011;26998;48.714;9.414;2023-09-12T11:01:30;5.75;;;4.32;;
41263;SDS011;26998;48.714;9.414;2023-09-12T11:03:58;7.45;;;4.82;;
41263;SDS011;26998;48.714;9.414;2023-09-12T11:06:29;4.63;;;3.67;;
41263;SDS011;26998;48.714;9.414;2023-09-12T11:12:01;3.90;;;3.47;;
41263;SDS011;26998;48.714;9.414;2023-09-12T11:14:29;4.28;;;3.88;;
41263;SDS011;26998;48.714;9.414;2023-09-12T11:17:41;5.27;;;4.53;;
41263;SDS011;26998;48.714;9.414;2023-09-12T11:19:49;5.95;;;4.63;;
41263;SDS011;26998;48.714;9.414;2023-09-12T11:22:24;4.00;;;3.60;;
41263;SDS011;26998;48.714;9.414;2023-09-12T11:24:53;3.75;;;3.25;;
41263;SDS011;26998;48.714;9.414;2023-09-12T11:27:21;4.88;;;3.30;;
41263;SDS011;26998;48.714;9.414;2023-09-12T11:29:49;3.47;;;3.17;;
41263;SDS011;26998;48.714;9.414;2023-09-12T11:32:32;4.22;;;3.83;;
41263;SDS011;26998;48.714;9.414;2023-09-12T11:35:07;4.00;;;3.60;;
41263;SDS011;26998;48.714;9.414;2023-09-12T11:37:34;3.45;;;3.15;;
41263;SDS011;26998;48.714;9.414;2023-09-12T11:40:24;7.88;;;4.00;;
41263;SDS011;26998;48.714;9.414;2023-09-12T11:43:21;3.30;;;3.00;;
41263;SDS011;26998;48.714;9.414;2023-09-12T11:45:48;3.38;;;3.08;;
41263;SDS011;26998;48.714;9.414;2023-09-12T11:48:15;5.40;;;3.22;;
41263;SDS011;26998;48.714;9.414;2023-09-12T11:50:42;3.92;;;3.00;;
41263;SDS011;26998;48.714;9.414;2023-09-12T11:53:09;5.68;;;3.50;;
41263;SDS011;26998;48.714;9.414;2023-09-12T11:55:43;3.55;;;3.10;;
41263;SDS011;26998;48.714;9.414;2023-09-12T11:58:12;3.50;;;3.17;;
41263;SDS011;26998;48.714;9.414;2023-09-12T12:00:58;3.42;;;3.08;;
41263;SDS011;26998;48.714;9.414;2023-09-12T12:03:26;3.20;;;2.90;;
41263;SDS011;26998;48.714;9.414;2023-09-12T12:05:57;3.40;;;2.95;;
41263;SDS011;26998;48.714;9.414;2023-09-12T12:08:27;3.35;;;3.05;;
41263;SDS011;26998;48.714;9.414;2023-09-12T12:10:58;3.20;;;2.90;;
41263;SDS011;26998;48.714;9.414;2023-09-12T12:13:25;3.35;;;3.05;;
41263;SDS011;26998;48.714;9.414;2023-09-12T12:15:52;4.55;;;2.88;;
41263;SDS011;26998;48.714;9.414;2023-09-12T12:18:20;3.65;;;2.55;;
41263;SDS011;26998;48.714;9.414;2023-09-12T12:20:47;2.85;;;2.65;;
41263;SDS011;26998;48.714;9.414;2023-09-12T12:23:14;3.85;;;2.90;;
41263;SDS011;26998;48.714;9.414;2023-09-12T12:25:41;2.92;;;2.60;;
41263;SDS011;26998;48.714;9.414;2023-09-12T12:28:08;5.43;;;3.22;;
41263;SDS011;26998;48.714;9.414;2023-09-12T12:30:35;4.22;;;3.20;;
41263;SDS011;26998;48.714;9.414;2023-09-12T12:33:07;4.25;;;2.58;;
41263;SDS011;26998;48.714;9.414;2023-09-12T12:36:01;3.45;;;2.53;;
41263;SDS011;26998;48.714;9.414;2023-09-12T12:38:33;2.60;;;2.40;;
41263;SDS011;26998;48.714;9.414;2023-09-12T12:41:03;2.45;;;2.25;;
41263;SDS011;26998;48.714;9.414;2023-09-12T12:43:30;2.35;;;2.15;;
41263;SDS011;26998;48.714;9.414;2023-09-12T12:45:58;2.88;;;2.63;;
41263;SDS011;26998;48.714;9.414;2023-09-12T12:50:59;2.95;;;2.58;;
41263;SDS011;26998;48.714;9.414;2023-09-12T12:53:48;2.30;;;2.08;;
41263;SDS011;26998;48.714;9.414;2023-09-12T12:56:22;2.55;;;2.35;;
41263;SDS011;26998;48.714;9.414;2023-09-12T12:58:55;4.90;;;3.08;;
41263;SDS011;26998;48.714;9.414;2023-09-12T13:01:27;2.40;;;2.20;;
41263;SDS011;26998;48.714;9.414;2023-09-12T13:06:21;2.97;;;2.55;;
41263;SDS011;26998;48.714;9.414;2023-09-12T13:08:51;2.53;;;2.33;;
41263;SDS011;26998;48.714;9.414;2023-09-12T13:11:18;5.47;;;2.65;;
41263;SDS011;26998;48.714;9.414;2023-09-12T13:13:50;2.60;;;2.40;;
41263;SDS011;26998;48.714;9.414;2023-09-12T13:16:18;3.60;;;3.10;;
41263;SDS011;26998;48.714;9.414;2023-09-12T13:21:16;6.13;;;3.15;;
41263;SDS011;26998;48.714;9.414;2023-09-12T13:23:43;3.08;;;2.40;;
41263;SDS011;26998;48.714;9.414;2023-09-12T13:26:11;3.17;;;2.88;;
41263;SDS011;26998;48.714;9.414;2023-09-12T13:28:38;2.70;;;2.50;;
41263;SDS011;26998;48.714;9.414;2023-09-12T13:31:05;3.20;;;2.90;;
41263;SDS011;26998;48.714;9.414;2023-09-12T13:33:31;3.58;;;3.28;;
41263;SDS011;26998;48.714;9.414;2023-09-12T13:35:58;3.38;;;3.08;;
41263;SDS011;26998;48.714;9.414;2023-09-12T13:38:28;2.90;;;2.67;;
41263;SDS011;26998;48.714;9.414;2023-09-12T13:43:22;4.50;;;3.20;;
41263;SDS011;26998;48.714;9.414;2023-09-12T13:45:49;3.15;;;2.85;;
41263;SDS011;26998;48.714;9.414;2023-09-12T13:48:16;3.00;;;2.53;;
41263;SDS011;26998;48.714;9.414;2023-09-12T13:50:42;3.85;;;3.25;;
41263;SDS011;26998;48.714;9.414;2023-09-12T13:53:09;3.58;;;2.90;;
41263;SDS011;26998;48.714;9.414;2023-09-12T13:55:37;3.55;;;3.08;;
41263;SDS011;26998;48.714;9.414;2023-09-12T13:58:24;3.30;;;2.95;;
41263;SDS011;26998;48.714;9.414;2023-09-12T14:01:07;3.63;;;3.13;;
41263;SDS011;26998;48.714;9.414;2023-09-12T14:03:38;3.50;;;3.05;;
41263;SDS011;26998;48.714;9.414;2023-09-12T14:06:05;3.28;;;2.97;;
41263;SDS011;26998;48.714;9.414;2023-09-12T14:08:32;2.75;;;2.45;;
41263;SDS011;26998;48.714;9.414;2023-09-12T14:10:59;3.05;;;2.75;;
41263;SDS011;26998;48.714;9.414;2023-09-12T14:13:26;3.28;;;2.80;;
41263;SDS011;26998;48.714;9.414;2023-09-12T14:15:54;3.33;;;3.03;;
41263;SDS011;26998;48.714;9.414;2023-09-12T14:18:24;4.20;;;2.80;;
41263;SDS011;26998;48.714;9.414;2023-09-12T14:20:52;3.37;;;3.07;;
41263;SDS011;26998;48.714;9.414;2023-09-12T14:23:22;4.53;;;3.30;;
41263;SDS011;26998;48.714;9.414;2023-09-12T14:25:49;4.20;;;3.45;;
41263;SDS011;26998;48.714;9.414;2023-09-12T14:28:17;3.70;;;3.08;;
41263;SDS011;26998;48.714;9.414;2023-09-12T14:30:45;3.92;;;2.92;;
41263;SDS011;26998;48.714;9.414;2023-09-12T14:33:12;3.08;;;2.75;;
41263;SDS011;26998;48.714;9.414;2023-09-12T14:35:43;4.05;;;3.60;;
41263;SDS011;26998;48.714;9.414;2023-09-12T14:38:10;3.30;;;3.00;;
41263;SDS011;26998;48.714;9.414;2023-09-12T14:40:38;3.70;;;3.20;;
41263;SDS011;26998;48.714;9.414;2023-09-12T14:43:08;3.42;;;3.13;;
41263;SDS011;26998;48.714;9.414;2023-09-12T14:45:37;5.75;;;3.03;;
41263;SDS011;26998;48.714;9.414;2023-09-12T14:48:05;3.60;;;3.25;;
41263;SDS011;26998;48.714;9.414;2023-09-12T14:50:33;5.20;;;3.17;;
41263;SDS011;26998;48.714;9.414;2023-09-12T14:53:08;2.80;;;2.47;;
41263;SDS011;26998;48.714;9.414;2023-09-12T14:55:35;3.75;;;3.33;;
41263;SDS011;26998;48.714;9.414;2023-09-12T14:58:05;5.18;;;3.40;;
41263;SDS011;26998;48.714;9.414;2023-09-12T15:00:32;3.70;;;3.20;;
41263;SDS011;26998;48.714;9.414;2023-09-12T15:03:03;3.75;;;3.10;;
41263;SDS011;26998;48.714;9.414;2023-09-12T15:05:32;4.10;;;3.10;;
41263;SDS011;26998;48.714;9.414;2023-09-12T15:07:58;3.50;;;3.20;;
41263;SDS011;26998;48.714;9.414;2023-09-12T15:10:25;3.72;;;2.67;;
41263;SDS011;26998;48.714;9.414;2023-09-12T15:12:52;4.90;;;3.20;;
41263;SDS011;26998;48.714;9.414;2023-09-12T15:15:19;3.25;;;2.50;;
41263;SDS011;26998;48.714;9.414;2023-09-12T15:17:46;4.95;;;3.17;;
41263;SDS011;26998;48.714;9.414;2023-09-12T15:20:13;3.88;;;3.38;;
41263;SDS011;26998;48.714;9.414;2023-09-12T15:22:40;5.65;;;3.17;;
41263;SDS011;26998;48.714;9.414;2023-09-12T15:25:07;3.60;;;2.75;;
41263;SDS011;26998;48.714;9.414;2023-09-12T15:27:34;4.50;;;3.35;;